createdAt,value
2019-05-21T00:00:58.278Z,45.83
2019-05-21T00:03:26.907Z,49.03
2019-05-21T00:05:55.198Z,39.43
2019-05-21T00:08:23.391Z,42.37
2019-05-21T00:10:53.252Z,45.13
2019-05-21T00:13:21.553Z,38.17
2019-05-21T00:15:49.768Z,38.27
2019-05-21T00:18:18.759Z,35.33
2019-05-21T00:20:49.107Z,39.10
2019-05-21T00:23:17.686Z,39.03
2019-05-21T00:25:45.757Z,33.57
2019-05-21T00:28:32.147Z,34.07
2019-05-21T00:31:18.669Z,37.20
2019-05-21T00:34:06.718Z,32.20
2019-05-21T00:36:55.408Z,33.30
2019-05-21T00:39:41.649Z,41.83
2019-05-21T00:42:09.487Z,41.20
2019-05-21T00:44:39.305Z,46.97
2019-05-21T00:47:08.822Z,48.10
2019-05-21T00:49:37.483Z,43.70
2019-05-21T00:52:08.446Z,48.23
2019-05-21T00:54:36.606Z,44.43
2019-05-21T00:57:04.938Z,45.97
2019-05-21T00:59:35.073Z,42.60
2019-05-21T01:02:04.395Z,45.17
2019-05-21T01:04:33.045Z,61.17
2019-05-21T01:07:02.726Z,44.73
2019-05-21T01:09:31.052Z,45.70
2019-05-21T01:12:01.848Z,47.17
2019-05-21T01:14:30.221Z,48.03
2019-05-21T01:16:58.361Z,50.73
2019-05-21T01:19:26.531Z,47.50
2019-05-21T01:21:54.914Z,41.70
2019-05-21T01:24:23.759Z,61.47
2019-05-21T01:26:51.904Z,49.33
2019-05-21T01:29:20.746Z,49.87
2019-05-21T01:31:49.733Z,53.37
2019-05-21T01:34:18.092Z,52.93
2019-05-21T01:36:46.803Z,47.07
2019-05-21T01:39:15.195Z,52.53
2019-05-21T01:41:43.770Z,44.30
2019-05-21T01:44:13.282Z,47.43
2019-05-21T01:46:41.513Z,48.73
2019-05-21T01:49:09.763Z,36.53
2019-05-21T01:51:38.023Z,52.63
2019-05-21T01:54:07.621Z,51.27
2019-05-21T01:56:36.236Z,54.30
2019-05-21T01:59:05.009Z,49.27
2019-05-21T02:01:33.331Z,52.37
2019-05-21T02:04:01.514Z,52.60
2019-05-21T02:06:29.607Z,60.73
2019-05-21T02:09:00.015Z,54.70
2019-05-21T02:11:29.030Z,52.60
2019-05-21T02:13:57.335Z,67.07
2019-05-21T02:16:25.988Z,67.47
2019-05-21T02:18:54.658Z,67.57
2019-05-21T02:21:22.741Z,76.87
2019-05-21T02:23:51.389Z,71.60
2019-05-21T02:26:24.029Z,83.53
2019-05-21T02:28:52.262Z,82.00
2019-05-21T02:31:21.329Z,80.27
2019-05-21T02:33:49.528Z,81.77
2019-05-21T02:36:18.023Z,74.00
2019-05-21T02:38:46.523Z,90.70
2019-05-21T02:41:15.278Z,88.63
2019-05-21T02:43:43.627Z,97.83
2019-05-21T02:46:12.381Z,87.53
2019-05-21T02:48:40.965Z,78.23
2019-05-21T02:51:09.326Z,92.53
2019-05-21T02:53:37.966Z,81.97
2019-05-21T02:56:06.163Z,87.53
2019-05-21T02:58:35.042Z,88.53
2019-05-21T03:01:10.363Z,88.53
2019-05-21T03:03:39.643Z,81.53
2019-05-21T03:06:13.653Z,90.37
2019-05-21T03:08:37.526Z,124.60
2019-05-21T03:11:05.937Z,78.87
2019-05-21T03:13:34.161Z,95.47
2019-05-21T03:16:02.355Z,91.30
2019-05-21T03:18:30.463Z,96.30
2019-05-21T03:20:59.343Z,102.40
2019-05-21T03:23:27.981Z,89.70
2019-05-21T03:25:57.810Z,100.23
2019-05-21T03:28:28.947Z,96.83
2019-05-21T03:30:57.116Z,81.37
2019-05-21T03:33:26.138Z,91.23
2019-05-21T03:35:56.110Z,72.37
2019-05-21T03:38:24.629Z,66.80
2019-05-21T03:40:52.791Z,59.03
2019-05-21T03:43:21.409Z,54.40
2019-05-21T03:45:49.420Z,53.07
2019-05-21T03:48:17.659Z,49.00
2019-05-21T03:50:45.975Z,46.60
2019-05-21T03:53:14.325Z,38.30
2019-05-21T03:55:42.305Z,36.20
2019-05-21T03:58:10.485Z,40.73
2019-05-21T04:00:39.329Z,36.30
2019-05-21T04:03:07.538Z,37.27
2019-05-21T04:05:36.995Z,34.87
2019-05-21T04:08:05.124Z,34.27
2019-05-21T04:10:33.928Z,37.27
2019-05-21T04:13:09.043Z,31.40
2019-05-21T04:15:57.613Z,30.87
2019-05-21T04:18:40.381Z,32.67
2019-05-21T04:21:08.752Z,33.07
2019-05-21T04:23:36.959Z,37.03
2019-05-21T04:26:05.185Z,31.53
2019-05-21T04:28:33.695Z,30.47
2019-05-21T04:31:02.086Z,35.93
2019-05-21T04:33:30.181Z,31.10
2019-05-21T04:35:58.679Z,32.57
2019-05-21T04:38:26.861Z,31.33
2019-05-21T04:40:55.453Z,25.73
2019-05-21T04:43:23.760Z,27.80
2019-05-21T04:45:52.037Z,26.33
2019-05-21T04:48:20.225Z,28.13
2019-05-21T04:50:48.671Z,24.63
2019-05-21T04:53:16.814Z,26.97
2019-05-21T04:55:44.935Z,28.50
2019-05-21T04:58:13.110Z,23.23
2019-05-21T05:00:41.322Z,26.67
2019-05-21T05:03:09.508Z,26.73
2019-05-21T05:05:37.727Z,26.03
2019-05-21T05:08:06.239Z,25.67
2019-05-21T05:10:34.508Z,27.93
2019-05-21T05:13:03.025Z,24.17
2019-05-21T05:15:31.596Z,23.93
2019-05-21T05:17:59.896Z,24.70
2019-05-21T05:20:28.614Z,25.27
2019-05-21T05:22:56.835Z,25.97
2019-05-21T05:25:25.246Z,26.20
2019-05-21T05:27:53.322Z,23.70
2019-05-21T05:30:21.816Z,24.37
2019-05-21T05:32:50.447Z,22.30
2019-05-21T05:35:18.619Z,23.90
2019-05-21T05:37:48.972Z,23.10
2019-05-21T05:40:17.316Z,23.63
2019-05-21T05:42:45.496Z,22.67
2019-05-21T05:45:16.278Z,21.33
2019-05-21T05:47:44.686Z,23.43
2019-05-21T05:50:15.099Z,20.50
2019-05-21T05:52:43.302Z,22.07
2019-05-21T05:55:11.939Z,19.10
2019-05-21T05:57:41.062Z,18.67
2019-05-21T06:00:10.239Z,19.43
2019-05-21T06:02:38.718Z,18.47
2019-05-21T06:05:07.040Z,21.40
2019-05-21T06:07:35.438Z,21.47
2019-05-21T06:10:04.194Z,20.87
2019-05-21T06:12:32.371Z,21.03
2019-05-21T06:15:03.490Z,19.53
2019-05-21T06:17:30.543Z,18.73
2019-05-21T06:19:58.692Z,18.20
2019-05-21T06:22:26.699Z,19.13
2019-05-21T06:24:56.876Z,18.80
2019-05-21T06:27:24.925Z,18.10
2019-05-21T06:29:53.455Z,17.50
2019-05-21T06:32:22.184Z,17.00
2019-05-21T06:34:50.178Z,16.83
2019-05-21T06:37:18.422Z,16.30
2019-05-21T06:39:46.833Z,17.90
2019-05-21T06:42:15.369Z,18.63
2019-05-21T06:44:43.603Z,16.67
2019-05-21T06:47:11.685Z,16.37
2019-05-21T06:49:40.106Z,16.27
2019-05-21T06:52:10.109Z,15.23
2019-05-21T06:54:40.337Z,17.97
2019-05-21T06:57:08.363Z,19.77
2019-05-21T06:59:36.392Z,15.80
2019-05-21T07:02:05.285Z,16.63
2019-05-21T07:04:33.636Z,16.97
2019-05-21T07:07:01.775Z,16.93
2019-05-21T07:09:29.938Z,16.43
2019-05-21T07:11:58.163Z,19.97
2019-05-21T07:14:26.476Z,23.77
2019-05-21T07:16:54.627Z,15.63
2019-05-21T07:19:23.189Z,20.03
2019-05-21T07:21:51.361Z,16.03
2019-05-21T07:24:19.888Z,15.70
2019-05-21T07:26:49.458Z,15.47
2019-05-21T07:29:17.572Z,15.80
2019-05-21T07:31:45.738Z,16.97
2019-05-21T07:34:13.964Z,14.53
2019-05-21T07:36:42.643Z,16.20
2019-05-21T07:39:10.871Z,14.93
2019-05-21T07:41:39.070Z,15.20
2019-05-21T07:44:07.202Z,16.23
2019-05-21T07:46:39.023Z,14.13
2019-05-21T07:49:05.292Z,16.57
2019-05-21T07:51:33.904Z,13.50
2019-05-21T07:54:02.181Z,14.00
2019-05-21T07:56:30.411Z,14.30
2019-05-21T07:58:58.564Z,14.53
2019-05-21T08:01:26.872Z,12.90
2019-05-21T08:03:55.451Z,12.83
2019-05-21T08:06:23.761Z,11.70
2019-05-21T08:09:10.877Z,16.17
2019-05-21T08:11:21.851Z,13.07
2019-05-21T08:13:50.025Z,15.23
2019-05-21T08:16:18.342Z,10.90
2019-05-21T08:18:46.641Z,10.63
2019-05-21T08:21:14.894Z,10.23
2019-05-21T08:23:43.242Z,11.57
2019-05-21T08:26:11.933Z,11.60
2019-05-21T08:28:43.154Z,11.53
2019-05-21T08:31:11.281Z,11.23
2019-05-21T08:33:40.020Z,11.23
2019-05-21T08:36:08.439Z,11.93
2019-05-21T08:38:36.854Z,13.00
2019-05-21T08:41:04.978Z,10.80
2019-05-21T08:43:33.183Z,9.87
2019-05-21T08:46:01.926Z,7.73
2019-05-21T08:48:30.734Z,10.33
2019-05-21T08:50:58.924Z,10.90
2019-05-21T08:53:27.577Z,10.40
2019-05-21T08:55:55.784Z,10.00
2019-05-21T08:58:24.145Z,10.37
2019-05-21T09:00:52.462Z,10.40
2019-05-21T09:03:20.977Z,11.33
2019-05-21T09:05:49.276Z,11.23
2019-05-21T09:08:17.987Z,11.27
2019-05-21T09:10:46.222Z,10.73
2019-05-21T09:13:17.761Z,11.47
2019-05-21T09:15:44.585Z,10.97
2019-05-21T09:18:12.707Z,12.07
2019-05-21T09:20:41.385Z,11.70
2019-05-21T09:23:09.618Z,11.10
2019-05-21T09:25:38.447Z,9.47
2019-05-21T09:28:11.270Z,10.23
2019-05-21T09:30:39.397Z,9.97
2019-05-21T09:33:07.683Z,9.93
2019-05-21T09:35:35.785Z,10.43
2019-05-21T09:38:04.066Z,7.57
2019-05-21T09:40:32.254Z,6.93
2019-05-21T09:43:00.504Z,8.83
2019-05-21T09:45:29.558Z,7.40
2019-05-21T09:47:57.918Z,7.07
2019-05-21T09:50:26.164Z,6.70
2019-05-21T09:52:54.446Z,7.80
2019-05-21T09:55:22.967Z,5.77
2019-05-21T09:58:06.788Z,6.63
2019-05-21T10:01:09.308Z,7.63
2019-05-21T10:03:41.322Z,6.03
2019-05-21T10:06:09.467Z,5.50
2019-05-21T10:08:37.732Z,5.40
2019-05-21T10:11:06.371Z,4.50
2019-05-21T10:13:34.702Z,11.50
2019-05-21T10:16:03.259Z,4.27
2019-05-21T10:18:31.747Z,4.47
2019-05-21T10:21:00.000Z,5.10
2019-05-21T10:23:28.667Z,9.10
2019-05-21T10:25:56.818Z,6.33
2019-05-21T10:28:25.507Z,5.20
2019-05-21T10:30:53.783Z,5.80
2019-05-21T10:33:22.081Z,5.23
2019-05-21T10:35:50.738Z,7.03
2019-05-21T10:38:19.032Z,4.00
2019-05-21T10:40:47.225Z,4.10
2019-05-21T10:43:15.511Z,4.47
2019-05-21T10:45:43.801Z,4.27
2019-05-21T10:48:11.952Z,4.47
2019-05-21T10:50:40.718Z,4.50
2019-05-21T10:53:09.359Z,3.87
2019-05-21T10:55:37.598Z,4.40
2019-05-21T10:58:06.152Z,4.43
2019-05-21T11:00:34.528Z,4.50
2019-05-21T11:03:07.489Z,4.70
2019-05-21T11:05:37.985Z,7.00
2019-05-21T11:08:23.563Z,4.30
2019-05-21T11:10:36.827Z,3.87
2019-05-21T11:13:05.072Z,3.90
2019-05-21T11:15:33.357Z,7.70
2019-05-21T11:18:10.331Z,5.17
2019-05-21T11:20:31.841Z,4.00
2019-05-21T11:23:00.090Z,5.57
2019-05-21T11:25:28.205Z,4.20
2019-05-21T11:27:56.858Z,4.17
2019-05-21T11:30:25.460Z,3.93
2019-05-21T11:32:54.072Z,4.63
2019-05-21T11:35:22.309Z,3.10
2019-05-21T11:37:50.518Z,3.27
2019-05-21T11:40:20.447Z,3.30
2019-05-21T11:42:48.534Z,3.50
2019-05-21T11:45:31.168Z,3.53
2019-05-21T11:47:47.013Z,4.70
2019-05-21T11:50:16.536Z,3.63
2019-05-21T11:52:44.733Z,2.90
2019-05-21T11:55:13.940Z,2.80
2019-05-21T11:57:41.956Z,2.70
2019-05-21T12:00:10.609Z,3.67
2019-05-21T12:02:38.772Z,2.80
2019-05-21T12:05:07.518Z,3.07
2019-05-21T12:07:35.710Z,2.53
2019-05-21T12:10:05.860Z,2.87
2019-05-21T12:12:33.998Z,2.87
2019-05-21T12:15:14.726Z,2.57
2019-05-21T12:17:43.146Z,2.17
2019-05-21T12:20:11.702Z,2.80
2019-05-21T12:22:40.251Z,3.47
2019-05-21T12:25:09.080Z,2.70
2019-05-21T12:27:37.203Z,4.93
2019-05-21T12:30:09.143Z,2.90
2019-05-21T12:32:43.551Z,2.77
2019-05-21T12:35:11.907Z,2.50
2019-05-21T12:37:40.432Z,2.60
2019-05-21T12:40:13.199Z,4.47
2019-05-21T12:42:41.727Z,2.13
2019-05-21T12:45:09.955Z,2.00
2019-05-21T12:47:38.038Z,2.10
2019-05-21T12:50:07.356Z,3.23
2019-05-21T12:52:36.360Z,3.87
2019-05-21T12:55:04.635Z,4.53
2019-05-21T12:57:32.996Z,4.20
2019-05-21T13:00:04.331Z,4.37
2019-05-21T13:02:32.509Z,4.50
2019-05-21T13:05:00.609Z,4.40
2019-05-21T13:07:28.872Z,4.90
2019-05-21T13:09:56.918Z,5.27
2019-05-21T13:12:25.011Z,5.30
2019-05-21T13:14:53.184Z,5.60
2019-05-21T13:17:21.284Z,4.47
2019-05-21T13:19:51.898Z,5.40
2019-05-21T13:22:39.851Z,6.23
2019-05-21T13:25:08.774Z,7.83
2019-05-21T13:27:39.768Z,5.83
2019-05-21T13:30:08.899Z,5.30
2019-05-21T13:32:37.124Z,5.10
2019-05-21T13:35:06.590Z,5.33
2019-05-21T13:37:34.873Z,5.40
2019-05-21T13:40:03.024Z,5.60
2019-05-21T13:42:31.474Z,5.80
2019-05-21T13:44:59.637Z,5.67
2019-05-21T13:47:27.823Z,4.67
2019-05-21T13:49:56.051Z,5.23
2019-05-21T13:52:24.234Z,4.93
2019-05-21T13:54:52.395Z,4.20
2019-05-21T13:57:20.661Z,4.20
2019-05-21T13:59:48.687Z,5.53
2019-05-21T14:02:17.710Z,4.57
2019-05-21T14:04:45.735Z,3.70
2019-05-21T14:07:19.687Z,5.47
2019-05-21T14:09:47.917Z,4.03
2019-05-21T14:12:16.007Z,4.43
2019-05-21T14:14:44.993Z,4.10
2019-05-21T14:17:13.550Z,5.43
2019-05-21T14:19:41.613Z,5.23
2019-05-21T14:22:09.729Z,5.97
2019-05-21T14:24:38.168Z,8.17
2019-05-21T14:27:07.158Z,4.53
2019-05-21T14:29:35.776Z,5.47
2019-05-21T14:32:03.726Z,5.30
2019-05-21T14:34:32.519Z,5.07
2019-05-21T14:37:00.530Z,5.77
2019-05-21T14:39:28.427Z,3.87
2019-05-21T14:41:56.602Z,4.93
2019-05-21T14:44:24.957Z,5.10
2019-05-21T14:46:53.325Z,5.00
2019-05-21T14:49:21.465Z,4.90
2019-05-21T14:51:50.129Z,4.67
2019-05-21T14:54:26.850Z,5.53
2019-05-21T14:56:48.186Z,5.73
2019-05-21T14:59:16.526Z,4.87
2019-05-21T15:01:44.924Z,3.60
2019-05-21T15:04:13.030Z,4.60
2019-05-21T15:06:41.542Z,5.00
2019-05-21T15:09:09.578Z,4.97
2019-05-21T15:11:37.596Z,4.90
2019-05-21T15:14:05.538Z,5.60
2019-05-21T15:16:33.572Z,4.60
2019-05-21T15:19:01.704Z,5.20
2019-05-21T15:21:34.425Z,8.03
2019-05-21T15:24:02.891Z,4.83
2019-05-21T15:26:31.271Z,5.30
2019-05-21T15:28:59.935Z,4.70
2019-05-21T15:31:28.095Z,5.10
2019-05-21T15:33:56.906Z,4.33
2019-05-21T15:36:24.967Z,4.90
2019-05-21T15:38:53.256Z,4.97
2019-05-21T15:41:21.534Z,5.77
2019-05-21T15:43:49.722Z,4.97
2019-05-21T15:46:17.685Z,4.33
2019-05-21T15:48:46.050Z,8.83
2019-05-21T15:51:14.241Z,5.13
2019-05-21T15:53:42.886Z,3.53
2019-05-21T15:56:11.012Z,3.50
2019-05-21T15:58:39.147Z,4.10
2019-05-21T16:01:07.571Z,3.17
2019-05-21T16:03:35.592Z,3.60
2019-05-21T16:06:03.785Z,3.07
2019-05-21T16:08:31.797Z,3.47
2019-05-21T16:10:59.987Z,3.83
2019-05-21T16:13:31.191Z,3.77
2019-05-21T16:15:59.216Z,7.23
2019-05-21T16:18:27.349Z,8.87
2019-05-21T16:20:57.769Z,13.20
2019-05-21T16:23:25.881Z,8.83
2019-05-21T16:25:54.263Z,11.10
2019-05-21T16:28:23.303Z,8.30
2019-05-21T16:30:51.272Z,11.07
2019-05-21T16:33:19.345Z,9.90
2019-05-21T16:35:47.643Z,11.07
2019-05-21T16:38:16.784Z,9.80
2019-05-21T16:40:44.909Z,9.70
2019-05-21T16:43:13.437Z,12.63
2019-05-21T16:45:41.423Z,13.63
2019-05-21T16:48:09.534Z,11.00
2019-05-21T16:50:37.650Z,12.80
2019-05-21T16:53:05.746Z,12.27
2019-05-21T16:55:35.002Z,10.80
2019-05-21T16:58:03.183Z,12.17
2019-05-21T17:00:31.651Z,12.77
2019-05-21T17:03:00.236Z,18.27
2019-05-21T17:05:28.511Z,18.30
2019-05-21T17:07:56.724Z,11.17
2019-05-21T17:10:24.905Z,12.13
2019-05-21T17:12:53.543Z,13.83
2019-05-21T17:15:23.108Z,13.73
2019-05-21T17:17:51.093Z,8.23
2019-05-21T17:20:19.588Z,12.13
2019-05-21T17:22:47.565Z,9.87
2019-05-21T17:25:16.116Z,14.83
2019-05-21T17:27:44.599Z,13.10
2019-05-21T17:30:13.447Z,11.50
2019-05-21T17:32:41.558Z,13.03
2019-05-21T17:35:09.957Z,9.87
2019-05-21T17:37:38.263Z,10.10
2019-05-21T17:40:06.193Z,14.30
2019-05-21T17:42:34.404Z,14.30
2019-05-21T17:45:05.664Z,9.50
2019-05-21T17:47:33.670Z,12.60
2019-05-21T17:50:02.192Z,9.43
2019-05-21T17:52:30.308Z,11.37
2019-05-21T17:54:58.774Z,11.37
2019-05-21T17:57:26.932Z,13.03
2019-05-21T17:59:55.728Z,13.83
2019-05-21T18:02:24.935Z,12.83
2019-05-21T18:04:53.929Z,16.50
2019-05-21T18:07:23.080Z,10.53
2019-05-21T18:09:53.692Z,18.63
2019-05-21T18:12:31.653Z,11.67
2019-05-21T18:14:52.771Z,18.10
2019-05-21T18:17:23.401Z,20.37
2019-05-21T18:19:53.833Z,19.27
2019-05-21T18:22:23.435Z,18.90
2019-05-21T18:24:51.814Z,21.60
2019-05-21T18:27:20.274Z,18.73
2019-05-21T18:29:48.896Z,20.17
2019-05-21T18:32:17.318Z,19.20
2019-05-21T18:34:46.710Z,19.43
2019-05-21T18:37:15.159Z,18.60
2019-05-21T18:39:44.509Z,15.73
2019-05-21T18:42:21.710Z,22.03
2019-05-21T18:44:43.133Z,27.23
2019-05-21T18:47:11.212Z,19.77
2019-05-21T18:49:39.264Z,27.63
2019-05-21T18:52:07.274Z,19.60
2019-05-21T18:54:36.162Z,18.17
2019-05-21T18:57:04.180Z,19.53
2019-05-21T18:59:32.373Z,28.40
2019-05-21T19:02:01.059Z,23.07
2019-05-21T19:04:29.370Z,29.37
2019-05-21T19:06:58.199Z,19.73
2019-05-21T19:09:26.747Z,23.37
2019-05-21T19:11:55.724Z,25.97
2019-05-21T19:14:23.822Z,19.47
2019-05-21T19:16:52.375Z,11.97
2019-05-21T19:19:20.681Z,16.73
2019-05-21T19:21:48.789Z,17.73
2019-05-21T19:24:17.566Z,23.40
2019-05-21T19:26:46.332Z,18.57
2019-05-21T19:29:14.732Z,15.10
2019-05-21T19:31:49.176Z,18.13
2019-05-21T19:34:16.288Z,18.40
2019-05-21T19:36:45.168Z,17.60
2019-05-21T19:39:13.326Z,16.00
2019-05-21T19:41:42.226Z,17.47
2019-05-21T19:44:10.295Z,14.60
2019-05-21T19:46:38.709Z,15.23
2019-05-21T19:49:06.847Z,18.13
2019-05-21T19:51:35.168Z,17.43
2019-05-21T19:54:03.537Z,21.23
2019-05-21T19:56:31.646Z,15.87
2019-05-21T19:58:59.797Z,21.87
2019-05-21T20:01:28.269Z,21.13
2019-05-21T20:03:56.918Z,24.67
2019-05-21T20:06:27.104Z,26.50
2019-05-21T20:08:56.093Z,28.40
2019-05-21T20:11:24.943Z,27.43
2019-05-21T20:13:53.036Z,27.10
2019-05-21T20:16:22.667Z,24.70
2019-05-21T20:18:50.841Z,29.43
2019-05-21T20:21:19.986Z,30.43
2019-05-21T20:23:49.247Z,21.63
2019-05-21T20:26:21.256Z,18.47
2019-05-21T20:28:50.278Z,19.37
2019-05-21T20:31:19.022Z,21.47
2019-05-21T20:33:50.060Z,23.27
2019-05-21T20:36:19.319Z,21.83
2019-05-21T20:38:47.461Z,20.20
2019-05-21T20:41:17.749Z,19.33
2019-05-21T20:43:58.270Z,25.00
2019-05-21T20:46:16.275Z,23.23
2019-05-21T20:48:44.831Z,18.67
2019-05-21T20:51:13.654Z,19.73
2019-05-21T20:53:42.559Z,19.43
2019-05-21T20:56:11.432Z,20.60
2019-05-21T20:58:39.972Z,18.30
2019-05-21T21:01:08.608Z,19.60
2019-05-21T21:03:37.101Z,14.67
2019-05-21T21:06:07.692Z,19.40
2019-05-21T21:08:37.659Z,15.63
2019-05-21T21:11:07.203Z,17.30
2019-05-21T21:13:35.469Z,18.83
2019-05-21T21:16:04.101Z,26.27
2019-05-21T21:18:33.095Z,28.67
2019-05-21T21:21:01.396Z,22.67
2019-05-21T21:23:32.568Z,19.03
2019-05-21T21:26:00.836Z,23.57
2019-05-21T21:28:29.073Z,27.27
2019-05-21T21:30:57.588Z,30.20
2019-05-21T21:33:25.691Z,24.93
2019-05-21T21:35:54.108Z,29.97
2019-05-21T21:38:26.777Z,29.53
2019-05-21T21:40:55.623Z,24.27
2019-05-21T21:43:24.464Z,26.47
2019-05-21T21:45:52.551Z,28.17
2019-05-21T21:48:20.691Z,27.57
2019-05-21T21:50:49.008Z,28.13
2019-05-21T21:53:17.149Z,20.27
2019-05-21T21:55:46.241Z,22.80
2019-05-21T21:58:14.381Z,16.23
2019-05-21T22:01:21.261Z,21.60
2019-05-21T22:03:50.591Z,18.70
2019-05-21T22:06:20.492Z,23.30
2019-05-21T22:08:48.616Z,30.57
2019-05-21T22:11:17.484Z,33.80
2019-05-21T22:13:45.559Z,33.37
2019-05-21T22:16:14.416Z,28.20
2019-05-21T22:18:42.637Z,32.30
2019-05-21T22:21:11.611Z,35.33
2019-05-21T22:23:40.323Z,23.37
2019-05-21T22:26:08.931Z,20.03
2019-05-21T22:28:37.266Z,32.77
2019-05-21T22:31:06.316Z,29.03
2019-05-21T22:33:35.039Z,32.00
2019-05-21T22:36:03.768Z,26.67
2019-05-21T22:38:32.885Z,29.00
2019-05-21T22:41:01.221Z,28.73
2019-05-21T22:43:30.607Z,27.50
2019-05-21T22:45:59.182Z,28.37
2019-05-21T22:48:27.504Z,25.17
2019-05-21T22:50:56.003Z,27.53
2019-05-21T22:53:24.169Z,25.53
2019-05-21T22:55:52.258Z,22.10
2019-05-21T22:58:20.532Z,24.73
2019-05-21T23:00:49.028Z,23.87
2019-05-21T23:06:27.163Z,22.37
2019-05-21T23:08:55.293Z,24.00
2019-05-21T23:11:23.687Z,23.40
2019-05-21T23:13:52.355Z,19.40
2019-05-21T23:16:21.090Z,24.20
2019-05-21T23:18:49.481Z,25.77
2019-05-21T23:21:20.784Z,26.87
2019-05-21T23:23:50.051Z,18.47
2019-05-21T23:26:19.077Z,24.50
2019-05-21T23:28:47.128Z,23.13
2019-05-21T23:31:15.441Z,24.90
2019-05-21T23:33:43.962Z,28.60
2019-05-21T23:36:14.035Z,30.10
2019-05-21T23:38:43.606Z,23.60
2019-05-21T23:41:12.504Z,32.60
2019-05-21T23:43:41.434Z,27.47
2019-05-21T23:46:10.706Z,26.10
2019-05-21T23:48:39.644Z,25.37
2019-05-21T23:51:09.519Z,15.97
2019-05-21T23:53:38.220Z,28.13
2019-05-21T23:56:07.201Z,18.27
2019-05-21T23:58:36.014Z,23.90
